sensor_id;sensor_type;location;lat;lon;timestamp;P1;durP1;ratioP1;P2;durP2;ratioP2
21128;SDS011;10722;51.910;8.352;2022-12-29T00:01:18;5.73;;;1.77;;
21128;SDS011;10722;51.910;8.352;2022-12-29T00:04:04;5.43;;;1.90;;
21128;SDS011;10722;51.910;8.352;2022-12-29T00:06:56;5.03;;;1.90;;
21128;SDS011;10722;51.910;8.352;2022-12-29T00:09:42;5.17;;;1.80;;
21128;SDS011;10722;51.910;8.352;2022-12-29T00:12:27;5.93;;;2.07;;
21128;SDS011;10722;51.910;8.352;2022-12-29T00:15:12;4.73;;;1.87;;
21128;SDS011;10722;51.910;8.352;2022-12-29T00:17:57;5.27;;;1.97;;
21128;SDS011;10722;51.910;8.352;2022-12-29T00:20:43;5.17;;;2.10;;
21128;SDS011;10722;51.910;8.352;2022-12-29T00:23:28;5.43;;;2.00;;
21128;SDS011;10722;51.910;8.352;2022-12-29T00:26:13;4.80;;;2.00;;
21128;SDS011;10722;51.910;8.352;2022-12-29T00:29:01;5.67;;;2.10;;
21128;SDS011;10722;51.910;8.352;2022-12-29T00:31:46;4.27;;;2.00;;
21128;SDS011;10722;51.910;8.352;2022-12-29T00:34:32;6.20;;;2.10;;
21128;SDS011;10722;51.910;8.352;2022-12-29T00:37:17;5.47;;;1.97;;
21128;SDS011;10722;51.910;8.352;2022-12-29T00:40:03;5.70;;;2.20;;
21128;SDS011;10722;51.910;8.352;2022-12-29T00:42:48;4.27;;;1.83;;
21128;SDS011;10722;51.910;8.352;2022-12-29T00:45:33;4.20;;;2.00;;
21128;SDS011;10722;51.910;8.352;2022-12-29T00:48:18;4.77;;;2.00;;
21128;SDS011;10722;51.910;8.352;2022-12-29T00:51:04;5.53;;;2.00;;
21128;SDS011;10722;51.910;8.352;2022-12-29T00:53:49;5.33;;;1.80;;
21128;SDS011;10722;51.910;8.352;2022-12-29T00:56:34;5.53;;;1.80;;
21128;SDS011;10722;51.910;8.352;2022-12-29T00:59:20;4.47;;;1.80;;
21128;SDS011;10722;51.910;8.352;2022-12-29T01:02:06;3.83;;;1.73;;
21128;SDS011;10722;51.910;8.352;2022-12-29T01:04:52;5.23;;;1.93;;
21128;SDS011;10722;51.910;8.352;2022-12-29T01:07:37;4.70;;;1.70;;
21128;SDS011;10722;51.910;8.352;2022-12-29T01:10:22;3.23;;;1.70;;
21128;SDS011;10722;51.910;8.352;2022-12-29T01:13:07;3.40;;;1.60;;
21128;SDS011;10722;51.910;8.352;2022-12-29T01:15:53;3.37;;;1.50;;
21128;SDS011;10722;51.910;8.352;2022-12-29T01:18:39;4.03;;;1.50;;
21128;SDS011;10722;51.910;8.352;2022-12-29T01:21:24;3.40;;;1.50;;
21128;SDS011;10722;51.910;8.352;2022-12-29T01:24:10;3.03;;;1.53;;
21128;SDS011;10722;51.910;8.352;2022-12-29T01:26:55;5.43;;;1.70;;
21128;SDS011;10722;51.910;8.352;2022-12-29T01:29:40;2.40;;;1.40;;
21128;SDS011;10722;51.910;8.352;2022-12-29T01:32:26;3.77;;;1.60;;
21128;SDS011;10722;51.910;8.352;2022-12-29T01:35:11;3.07;;;1.30;;
21128;SDS011;10722;51.910;8.352;2022-12-29T01:37:58;3.73;;;1.47;;
21128;SDS011;10722;51.910;8.352;2022-12-29T01:40:44;4.70;;;1.53;;
21128;SDS011;10722;51.910;8.352;2022-12-29T01:46:43;3.57;;;1.63;;
21128;SDS011;10722;51.910;8.352;2022-12-29T01:49:34;3.27;;;1.40;;
21128;SDS011;10722;51.910;8.352;2022-12-29T01:52:19;4.47;;;1.30;;
21128;SDS011;10722;51.910;8.352;2022-12-29T01:55:04;2.50;;;0.93;;
21128;SDS011;10722;51.910;8.352;2022-12-29T01:57:50;2.17;;;1.10;;
21128;SDS011;10722;51.910;8.352;2022-12-29T02:00:38;2.47;;;1.30;;
21128;SDS011;10722;51.910;8.352;2022-12-29T02:03:24;4.63;;;1.40;;
21128;SDS011;10722;51.910;8.352;2022-12-29T02:09:07;2.67;;;1.40;;
21128;SDS011;10722;51.910;8.352;2022-12-29T02:11:52;2.67;;;1.30;;
21128;SDS011;10722;51.910;8.352;2022-12-29T02:14:38;2.03;;;1.30;;
21128;SDS011;10722;51.910;8.352;2022-12-29T02:20:26;1.73;;;1.10;;
21128;SDS011;10722;51.910;8.352;2022-12-29T02:30:08;2.40;;;1.03;;
21128;SDS011;10722;51.910;8.352;2022-12-29T02:35:56;2.77;;;1.10;;
21128;SDS011;10722;51.910;8.352;2022-12-29T02:45:30;1.33;;;0.80;;
21128;SDS011;10722;51.910;8.352;2022-12-29T02:54:43;0.83;;;0.70;;
21128;SDS011;10722;51.910;8.352;2022-12-29T02:57:33;1.60;;;0.90;;
21128;SDS011;10722;51.910;8.352;2022-12-29T03:00:19;1.13;;;0.70;;
21128;SDS011;10722;51.910;8.352;2022-12-29T03:03:14;1.83;;;0.70;;
21128;SDS011;10722;51.910;8.352;2022-12-29T03:12:38;1.63;;;0.80;;
21128;SDS011;10722;51.910;8.352;2022-12-29T03:15:55;1.17;;;0.67;;
21128;SDS011;10722;51.910;8.352;2022-12-29T03:21:44;2.23;;;1.00;;
21128;SDS011;10722;51.910;8.352;2022-12-29T03:24:35;1.63;;;0.90;;
21128;SDS011;10722;51.910;8.352;2022-12-29T03:27:27;0.60;;;0.60;;
21128;SDS011;10722;51.910;8.352;2022-12-29T03:30:16;0.70;;;0.70;;
21128;SDS011;10722;51.910;8.352;2022-12-29T03:33:03;1.57;;;0.80;;
21128;SDS011;10722;51.910;8.352;2022-12-29T03:35:52;1.67;;;0.77;;
21128;SDS011;10722;51.910;8.352;2022-12-29T03:38:50;0.73;;;0.57;;
21128;SDS011;10722;51.910;8.352;2022-12-29T03:41:43;1.50;;;0.73;;
21128;SDS011;10722;51.910;8.352;2022-12-29T03:44:34;1.60;;;0.90;;
21128;SDS011;10722;51.910;8.352;2022-12-29T03:47:28;3.97;;;0.93;;
21128;SDS011;10722;51.910;8.352;2022-12-29T03:50:13;3.83;;;0.70;;
21128;SDS011;10722;51.910;8.352;2022-12-29T03:52:58;2.50;;;0.80;;
21128;SDS011;10722;51.910;8.352;2022-12-29T03:55:43;3.30;;;0.70;;
21128;SDS011;10722;51.910;8.352;2022-12-29T03:58:29;1.07;;;0.70;;
21128;SDS011;10722;51.910;8.352;2022-12-29T04:01:14;2.73;;;0.90;;
21128;SDS011;10722;51.910;8.352;2022-12-29T04:04:01;1.30;;;0.73;;
21128;SDS011;10722;51.910;8.352;2022-12-29T04:06:47;1.17;;;0.73;;
21128;SDS011;10722;51.910;8.352;2022-12-29T04:09:32;3.10;;;0.77;;
21128;SDS011;10722;51.910;8.352;2022-12-29T04:12:16;1.40;;;0.80;;
21128;SDS011;10722;51.910;8.352;2022-12-29T04:15:02;1.27;;;0.70;;
21128;SDS011;10722;51.910;8.352;2022-12-29T04:17:47;2.30;;;0.63;;
21128;SDS011;10722;51.910;8.352;2022-12-29T04:20:33;2.33;;;0.80;;
21128;SDS011;10722;51.910;8.352;2022-12-29T04:23:18;3.60;;;1.07;;
21128;SDS011;10722;51.910;8.352;2022-12-29T04:26:02;1.47;;;0.80;;
21128;SDS011;10722;51.910;8.352;2022-12-29T04:28:48;2.43;;;0.80;;
21128;SDS011;10722;51.910;8.352;2022-12-29T04:31:33;5.23;;;1.30;;
21128;SDS011;10722;51.910;8.352;2022-12-29T04:34:19;3.07;;;0.80;;
21128;SDS011;10722;51.910;8.352;2022-12-29T04:37:04;2.37;;;0.80;;
21128;SDS011;10722;51.910;8.352;2022-12-29T04:39:49;4.43;;;0.93;;
21128;SDS011;10722;51.910;8.352;2022-12-29T04:42:34;2.17;;;0.70;;
21128;SDS011;10722;51.910;8.352;2022-12-29T04:45:19;2.23;;;0.90;;
21128;SDS011;10722;51.910;8.352;2022-12-29T04:48:05;1.23;;;0.90;;
21128;SDS011;10722;51.910;8.352;2022-12-29T04:50:50;3.67;;;1.10;;
21128;SDS011;10722;51.910;8.352;2022-12-29T04:53:35;2.10;;;1.00;;
21128;SDS011;10722;51.910;8.352;2022-12-29T04:56:21;1.93;;;0.90;;
21128;SDS011;10722;51.910;8.352;2022-12-29T04:59:06;2.10;;;0.70;;
21128;SDS011;10722;51.910;8.352;2022-12-29T05:01:51;3.50;;;0.87;;
21128;SDS011;10722;51.910;8.352;2022-12-29T05:04:36;2.47;;;0.83;;
21128;SDS011;10722;51.910;8.352;2022-12-29T05:07:22;4.13;;;0.87;;
21128;SDS011;10722;51.910;8.352;2022-12-29T05:10:07;0.73;;;0.50;;
21128;SDS011;10722;51.910;8.352;2022-12-29T05:12:53;1.47;;;0.70;;
21128;SDS011;10722;51.910;8.352;2022-12-29T05:15:38;2.37;;;0.83;;
21128;SDS011;10722;51.910;8.352;2022-12-29T05:18:24;1.87;;;0.63;;
21128;SDS011;10722;51.910;8.352;2022-12-29T05:21:09;1.40;;;0.80;;
21128;SDS011;10722;51.910;8.352;2022-12-29T05:23:54;2.83;;;0.90;;
21128;SDS011;10722;51.910;8.352;2022-12-29T05:26:39;1.87;;;0.97;;
21128;SDS011;10722;51.910;8.352;2022-12-29T05:29:25;2.20;;;0.97;;
21128;SDS011;10722;51.910;8.352;2022-12-29T05:32:10;2.33;;;0.90;;
21128;SDS011;10722;51.910;8.352;2022-12-29T05:34:54;2.97;;;0.90;;
21128;SDS011;10722;51.910;8.352;2022-12-29T05:37:39;2.77;;;0.90;;
21128;SDS011;10722;51.910;8.352;2022-12-29T05:40:25;3.57;;;1.07;;
21128;SDS011;10722;51.910;8.352;2022-12-29T05:43:10;2.07;;;0.93;;
21128;SDS011;10722;51.910;8.352;2022-12-29T05:45:54;4.50;;;0.97;;
21128;SDS011;10722;51.910;8.352;2022-12-29T05:48:40;3.40;;;0.97;;
21128;SDS011;10722;51.910;8.352;2022-12-29T05:51:25;1.73;;;0.77;;
21128;SDS011;10722;51.910;8.352;2022-12-29T05:54:10;2.70;;;1.10;;
21128;SDS011;10722;51.910;8.352;2022-12-29T05:56:56;1.73;;;0.90;;
21128;SDS011;10722;51.910;8.352;2022-12-29T05:59:42;3.17;;;1.00;;
21128;SDS011;10722;51.910;8.352;2022-12-29T06:02:26;2.13;;;0.90;;
21128;SDS011;10722;51.910;8.352;2022-12-29T06:05:12;2.27;;;1.00;;
21128;SDS011;10722;51.910;8.352;2022-12-29T06:07:57;1.67;;;1.00;;
21128;SDS011;10722;51.910;8.352;2022-12-29T06:10:42;4.10;;;1.17;;
21128;SDS011;10722;51.910;8.352;2022-12-29T06:13:27;2.07;;;0.80;;
21128;SDS011;10722;51.910;8.352;2022-12-29T06:16:13;4.43;;;1.00;;
21128;SDS011;10722;51.910;8.352;2022-12-29T06:18:58;2.83;;;1.07;;
21128;SDS011;10722;51.910;8.352;2022-12-29T06:21:43;3.33;;;1.07;;
21128;SDS011;10722;51.910;8.352;2022-12-29T06:24:28;1.53;;;0.80;;
21128;SDS011;10722;51.910;8.352;2022-12-29T06:27:13;2.00;;;0.93;;
21128;SDS011;10722;51.910;8.352;2022-12-29T06:29:58;2.17;;;0.80;;
21128;SDS011;10722;51.910;8.352;2022-12-29T06:32:43;3.97;;;1.10;;
21128;SDS011;10722;51.910;8.352;2022-12-29T06:35:29;4.50;;;1.30;;
21128;SDS011;10722;51.910;8.352;2022-12-29T06:38:14;4.43;;;1.40;;
21128;SDS011;10722;51.910;8.352;2022-12-29T06:41:00;4.70;;;1.27;;
21128;SDS011;10722;51.910;8.352;2022-12-29T06:43:45;4.30;;;1.20;;
21128;SDS011;10722;51.910;8.352;2022-12-29T06:46:29;3.73;;;1.50;;
21128;SDS011;10722;51.910;8.352;2022-12-29T06:49:14;4.97;;;1.40;;
21128;SDS011;10722;51.910;8.352;2022-12-29T06:52:01;3.07;;;1.37;;
21128;SDS011;10722;51.910;8.352;2022-12-29T06:54:52;5.27;;;1.30;;
21128;SDS011;10722;51.910;8.352;2022-12-29T06:57:37;5.97;;;1.23;;
21128;SDS011;10722;51.910;8.352;2022-12-29T07:00:23;3.20;;;1.30;;
21128;SDS011;10722;51.910;8.352;2022-12-29T07:03:09;5.13;;;1.50;;
21128;SDS011;10722;51.910;8.352;2022-12-29T07:05:55;3.00;;;1.27;;
21128;SDS011;10722;51.910;8.352;2022-12-29T07:08:40;4.60;;;1.03;;
21128;SDS011;10722;51.910;8.352;2022-12-29T07:11:25;5.03;;;1.20;;
21128;SDS011;10722;51.910;8.352;2022-12-29T07:14:10;3.90;;;1.00;;
21128;SDS011;10722;51.910;8.352;2022-12-29T07:16:56;8.00;;;1.57;;
21128;SDS011;10722;51.910;8.352;2022-12-29T07:19:41;5.10;;;1.20;;
21128;SDS011;10722;51.910;8.352;2022-12-29T07:22:26;3.97;;;1.10;;
21128;SDS011;10722;51.910;8.352;2022-12-29T07:25:11;6.73;;;1.40;;
21128;SDS011;10722;51.910;8.352;2022-12-29T07:27:57;8.17;;;1.60;;
21128;SDS011;10722;51.910;8.352;2022-12-29T07:30:41;7.10;;;1.87;;
21128;SDS011;10722;51.910;8.352;2022-12-29T07:33:30;8.77;;;1.80;;
21128;SDS011;10722;51.910;8.352;2022-12-29T07:36:16;8.03;;;1.70;;
21128;SDS011;10722;51.910;8.352;2022-12-29T07:39:01;4.93;;;1.70;;
21128;SDS011;10722;51.910;8.352;2022-12-29T07:41:47;6.27;;;1.60;;
21128;SDS011;10722;51.910;8.352;2022-12-29T07:44:32;6.57;;;1.50;;
21128;SDS011;10722;51.910;8.352;2022-12-29T07:47:25;7.20;;;1.80;;
21128;SDS011;10722;51.910;8.352;2022-12-29T07:50:10;6.70;;;1.77;;
21128;SDS011;10722;51.910;8.352;2022-12-29T07:52:55;7.77;;;1.60;;
21128;SDS011;10722;51.910;8.352;2022-12-29T07:55:40;7.50;;;1.97;;
21128;SDS011;10722;51.910;8.352;2022-12-29T07:58:25;7.97;;;1.80;;
21128;SDS011;10722;51.910;8.352;2022-12-29T08:01:11;7.03;;;1.60;;
21128;SDS011;10722;51.910;8.352;2022-12-29T08:03:56;13.07;;;1.80;;
21128;SDS011;10722;51.910;8.352;2022-12-29T08:06:42;5.10;;;1.50;;
21128;SDS011;10722;51.910;8.352;2022-12-29T08:09:27;7.37;;;1.70;;
21128;SDS011;10722;51.910;8.352;2022-12-29T08:12:12;4.13;;;1.50;;
21128;SDS011;10722;51.910;8.352;2022-12-29T08:14:57;8.77;;;1.80;;
21128;SDS011;10722;51.910;8.352;2022-12-29T08:17:42;5.90;;;1.70;;
21128;SDS011;10722;51.910;8.352;2022-12-29T08:20:27;4.70;;;1.50;;
21128;SDS011;10722;51.910;8.352;2022-12-29T08:23:13;6.10;;;1.50;;
21128;SDS011;10722;51.910;8.352;2022-12-29T08:25:58;9.63;;;1.90;;
21128;SDS011;10722;51.910;8.352;2022-12-29T08:28:44;7.10;;;1.87;;
21128;SDS011;10722;51.910;8.352;2022-12-29T08:31:30;6.47;;;2.07;;
21128;SDS011;10722;51.910;8.352;2022-12-29T08:34:15;7.17;;;1.60;;
21128;SDS011;10722;51.910;8.352;2022-12-29T08:37:01;7.13;;;1.90;;
21128;SDS011;10722;51.910;8.352;2022-12-29T08:39:46;6.50;;;1.70;;
21128;SDS011;10722;51.910;8.352;2022-12-29T08:42:31;7.33;;;1.77;;
21128;SDS011;10722;51.910;8.352;2022-12-29T08:45:16;11.77;;;2.13;;
21128;SDS011;10722;51.910;8.352;2022-12-29T08:48:01;9.10;;;2.07;;
21128;SDS011;10722;51.910;8.352;2022-12-29T08:50:47;7.50;;;2.10;;
21128;SDS011;10722;51.910;8.352;2022-12-29T08:53:33;8.27;;;1.90;;
21128;SDS011;10722;51.910;8.352;2022-12-29T08:56:19;7.53;;;1.80;;
21128;SDS011;10722;51.910;8.352;2022-12-29T08:59:04;7.40;;;1.70;;
21128;SDS011;10722;51.910;8.352;2022-12-29T09:01:48;9.10;;;2.20;;
21128;SDS011;10722;51.910;8.352;2022-12-29T09:04:34;9.30;;;2.30;;
21128;SDS011;10722;51.910;8.352;2022-12-29T09:07:19;10.43;;;2.70;;
21128;SDS011;10722;51.910;8.352;2022-12-29T09:10:04;10.37;;;2.50;;
21128;SDS011;10722;51.910;8.352;2022-12-29T09:12:51;11.27;;;2.60;;
21128;SDS011;10722;51.910;8.352;2022-12-29T09:15:37;9.93;;;2.33;;
21128;SDS011;10722;51.910;8.352;2022-12-29T09:18:22;10.07;;;2.57;;
21128;SDS011;10722;51.910;8.352;2022-12-29T09:21:09;9.93;;;2.33;;
21128;SDS011;10722;51.910;8.352;2022-12-29T09:23:55;9.47;;;2.00;;
21128;SDS011;10722;51.910;8.352;2022-12-29T09:26:40;12.27;;;2.57;;
21128;SDS011;10722;51.910;8.352;2022-12-29T09:29:31;7.40;;;1.80;;
21128;SDS011;10722;51.910;8.352;2022-12-29T09:32:16;8.10;;;1.70;;
21128;SDS011;10722;51.910;8.352;2022-12-29T09:35:04;9.00;;;1.87;;
21128;SDS011;10722;51.910;8.352;2022-12-29T09:37:49;10.80;;;1.97;;
21128;SDS011;10722;51.910;8.352;2022-12-29T09:40:34;12.50;;;2.10;;
21128;SDS011;10722;51.910;8.352;2022-12-29T09:43:26;10.97;;;2.00;;
21128;SDS011;10722;51.910;8.352;2022-12-29T09:46:29;9.47;;;1.93;;
21128;SDS011;10722;51.910;8.352;2022-12-29T09:52:20;10.60;;;2.10;;
21128;SDS011;10722;51.910;8.352;2022-12-29T09:55:09;9.13;;;1.90;;
21128;SDS011;10722;51.910;8.352;2022-12-29T09:58:00;11.67;;;1.90;;
21128;SDS011;10722;51.910;8.352;2022-12-29T10:00:51;12.80;;;2.10;;
21128;SDS011;10722;51.910;8.352;2022-12-29T10:03:51;10.23;;;1.80;;
21128;SDS011;10722;51.910;8.352;2022-12-29T10:06:42;10.20;;;1.90;;
21128;SDS011;10722;51.910;8.352;2022-12-29T10:09:59;9.47;;;1.90;;
21128;SDS011;10722;51.910;8.352;2022-12-29T10:19:12;12.43;;;2.10;;
21128;SDS011;10722;51.910;8.352;2022-12-29T10:25:23;11.13;;;2.03;;
21128;SDS011;10722;51.910;8.352;2022-12-29T10:28:24;12.30;;;2.37;;
21128;SDS011;10722;51.910;8.352;2022-12-29T10:31:33;10.10;;;1.93;;
21128;SDS011;10722;51.910;8.352;2022-12-29T10:34:24;11.77;;;1.70;;
21128;SDS011;10722;51.910;8.352;2022-12-29T10:40:19;8.73;;;1.70;;
21128;SDS011;10722;51.910;8.352;2022-12-29T10:43:22;14.73;;;1.90;;
21128;SDS011;10722;51.910;8.352;2022-12-29T10:46:12;11.30;;;1.80;;
21128;SDS011;10722;51.910;8.352;2022-12-29T10:49:01;9.67;;;1.67;;
21128;SDS011;10722;51.910;8.352;2022-12-29T10:51:46;8.87;;;1.80;;
21128;SDS011;10722;51.910;8.352;2022-12-29T10:57:36;12.47;;;1.57;;
21128;SDS011;10722;51.910;8.352;2022-12-29T11:00:29;9.20;;;1.63;;
21128;SDS011;10722;51.910;8.352;2022-12-29T11:09:11;8.80;;;1.63;;
21128;SDS011;10722;51.910;8.352;2022-12-29T11:12:00;8.17;;;1.63;;
21128;SDS011;10722;51.910;8.352;2022-12-29T11:14:45;11.20;;;1.67;;
21128;SDS011;10722;51.910;8.352;2022-12-29T11:17:32;9.87;;;1.93;;
21128;SDS011;10722;51.910;8.352;2022-12-29T11:23:32;6.40;;;1.17;;
21128;SDS011;10722;51.910;8.352;2022-12-29T11:26:20;9.20;;;1.57;;
21128;SDS011;10722;51.910;8.352;2022-12-29T11:29:17;13.47;;;1.93;;
21128;SDS011;10722;51.910;8.352;2022-12-29T11:32:17;12.60;;;2.17;;
21128;SDS011;10722;51.910;8.352;2022-12-29T11:35:18;8.10;;;1.60;;
21128;SDS011;10722;51.910;8.352;2022-12-29T11:38:19;11.50;;;1.73;;
21128;SDS011;10722;51.910;8.352;2022-12-29T11:41:10;10.10;;;1.70;;
21128;SDS011;10722;51.910;8.352;2022-12-29T11:43:58;10.83;;;1.80;;
21128;SDS011;10722;51.910;8.352;2022-12-29T11:46:48;11.10;;;2.10;;
21128;SDS011;10722;51.910;8.352;2022-12-29T11:49:35;10.20;;;2.20;;
21128;SDS011;10722;51.910;8.352;2022-12-29T11:52:22;9.67;;;1.73;;
21128;SDS011;10722;51.910;8.352;2022-12-29T11:55:20;9.97;;;1.83;;
21128;SDS011;10722;51.910;8.352;2022-12-29T11:58:11;9.90;;;1.47;;
21128;SDS011;10722;51.910;8.352;2022-12-29T12:01:02;12.43;;;1.80;;
21128;SDS011;10722;51.910;8.352;2022-12-29T12:03:56;9.67;;;1.70;;
21128;SDS011;10722;51.910;8.352;2022-12-29T12:06:48;10.83;;;1.80;;
21128;SDS011;10722;51.910;8.352;2022-12-29T12:09:57;9.23;;;1.77;;
21128;SDS011;10722;51.910;8.352;2022-12-29T12:16:09;8.03;;;1.60;;
21128;SDS011;10722;51.910;8.352;2022-12-29T12:19:02;11.73;;;1.67;;
21128;SDS011;10722;51.910;8.352;2022-12-29T12:21:56;13.03;;;1.83;;
21128;SDS011;10722;51.910;8.352;2022-12-29T12:25:26;7.27;;;1.70;;
21128;SDS011;10722;51.910;8.352;2022-12-29T12:28:19;12.57;;;2.30;;
21128;SDS011;10722;51.910;8.352;2022-12-29T12:31:35;13.03;;;1.97;;
21128;SDS011;10722;51.910;8.352;2022-12-29T12:34:24;8.50;;;1.93;;
21128;SDS011;10722;51.910;8.352;2022-12-29T12:37:19;8.30;;;1.50;;
21128;SDS011;10722;51.910;8.352;2022-12-29T12:40:17;12.93;;;2.20;;
21128;SDS011;10722;51.910;8.352;2022-12-29T12:46:19;12.43;;;1.97;;
21128;SDS011;10722;51.910;8.352;2022-12-29T13:00:50;9.77;;;1.80;;
21128;SDS011;10722;51.910;8.352;2022-12-29T13:16:16;13.97;;;2.63;;
21128;SDS011;10722;51.910;8.352;2022-12-29T13:19:10;9.77;;;2.10;;
21128;SDS011;10722;51.910;8.352;2022-12-29T13:22:17;13.63;;;2.30;;
21128;SDS011;10722;51.910;8.352;2022-12-29T13:28:32;8.87;;;1.97;;
21128;SDS011;10722;51.910;8.352;2022-12-29T13:31:31;14.17;;;2.43;;
21128;SDS011;10722;51.910;8.352;2022-12-29T13:37:24;13.33;;;2.50;;
21128;SDS011;10722;51.910;8.352;2022-12-29T13:40:14;10.30;;;2.40;;
21128;SDS011;10722;51.910;8.352;2022-12-29T13:43:02;12.17;;;2.00;;
21128;SDS011;10722;51.910;8.352;2022-12-29T13:45:50;12.63;;;2.40;;
21128;SDS011;10722;51.910;8.352;2022-12-29T13:48:55;12.30;;;2.07;;
21128;SDS011;10722;51.910;8.352;2022-12-29T13:51:47;12.57;;;2.20;;
21128;SDS011;10722;51.910;8.352;2022-12-29T13:57:44;12.47;;;2.27;;
21128;SDS011;10722;51.910;8.352;2022-12-29T14:03:43;19.73;;;2.90;;
21128;SDS011;10722;51.910;8.352;2022-12-29T14:06:32;11.33;;;2.30;;
21128;SDS011;10722;51.910;8.352;2022-12-29T14:12:30;12.87;;;2.33;;
21128;SDS011;10722;51.910;8.352;2022-12-29T14:15:22;10.03;;;2.03;;
21128;SDS011;10722;51.910;8.352;2022-12-29T14:18:13;13.60;;;2.30;;
21128;SDS011;10722;51.910;8.352;2022-12-29T14:21:17;11.33;;;2.17;;
21128;SDS011;10722;51.910;8.352;2022-12-29T14:30:06;12.20;;;2.30;;
21128;SDS011;10722;51.910;8.352;2022-12-29T14:33:29;11.10;;;2.20;;
21128;SDS011;10722;51.910;8.352;2022-12-29T14:36:24;14.70;;;2.40;;
21128;SDS011;10722;51.910;8.352;2022-12-29T14:42:15;12.13;;;2.07;;
21128;SDS011;10722;51.910;8.352;2022-12-29T14:45:26;17.53;;;2.50;;
21128;SDS011;10722;51.910;8.352;2022-12-29T14:48:33;13.40;;;2.60;;
21128;SDS011;10722;51.910;8.352;2022-12-29T14:51:31;15.40;;;2.60;;
21128;SDS011;10722;51.910;8.352;2022-12-29T14:54:34;12.60;;;2.13;;
21128;SDS011;10722;51.910;8.352;2022-12-29T15:00:16;15.00;;;2.70;;
21128;SDS011;10722;51.910;8.352;2022-12-29T15:03:05;12.80;;;2.57;;
21128;SDS011;10722;51.910;8.352;2022-12-29T15:05:58;14.07;;;2.30;;
21128;SDS011;10722;51.910;8.352;2022-12-29T15:09:04;11.63;;;2.13;;
21128;SDS011;10722;51.910;8.352;2022-12-29T15:11:57;14.67;;;2.23;;
21128;SDS011;10722;51.910;8.352;2022-12-29T15:14:50;14.90;;;3.30;;
21128;SDS011;10722;51.910;8.352;2022-12-29T15:17:40;11.00;;;2.10;;
21128;SDS011;10722;51.910;8.352;2022-12-29T15:20:27;16.73;;;2.57;;
21128;SDS011;10722;51.910;8.352;2022-12-29T15:23:14;13.90;;;2.60;;
21128;SDS011;10722;51.910;8.352;2022-12-29T15:26:05;12.47;;;2.37;;
21128;SDS011;10722;51.910;8.352;2022-12-29T15:28:52;14.40;;;2.33;;
21128;SDS011;10722;51.910;8.352;2022-12-29T15:31:45;11.47;;;2.20;;
21128;SDS011;10722;51.910;8.352;2022-12-29T15:34:31;12.73;;;2.07;;
21128;SDS011;10722;51.910;8.352;2022-12-29T15:40:21;10.63;;;2.03;;
21128;SDS011;10722;51.910;8.352;2022-12-29T15:43:11;17.40;;;2.53;;
21128;SDS011;10722;51.910;8.352;2022-12-29T15:46:14;13.60;;;2.30;;
21128;SDS011;10722;51.910;8.352;2022-12-29T15:49:00;13.47;;;2.17;;
21128;SDS011;10722;51.910;8.352;2022-12-29T15:51:50;12.17;;;2.37;;
21128;SDS011;10722;51.910;8.352;2022-12-29T15:54:35;12.60;;;2.17;;
21128;SDS011;10722;51.910;8.352;2022-12-29T15:57:46;13.80;;;2.20;;
21128;SDS011;10722;51.910;8.352;2022-12-29T16:00:30;12.57;;;1.90;;
21128;SDS011;10722;51.910;8.352;2022-12-29T16:03:20;14.00;;;2.20;;
21128;SDS011;10722;51.910;8.352;2022-12-29T16:06:21;10.50;;;2.13;;
21128;SDS011;10722;51.910;8.352;2022-12-29T16:09:15;13.00;;;2.50;;
21128;SDS011;10722;51.910;8.352;2022-12-29T16:12:02;14.73;;;2.97;;
21128;SDS011;10722;51.910;8.352;2022-12-29T16:15:04;12.70;;;2.03;;
21128;SDS011;10722;51.910;8.352;2022-12-29T16:17:58;12.00;;;2.60;;
21128;SDS011;10722;51.910;8.352;2022-12-29T16:20:43;13.67;;;2.47;;
21128;SDS011;10722;51.910;8.352;2022-12-29T16:23:28;15.40;;;3.07;;
21128;SDS011;10722;51.910;8.352;2022-12-29T16:26:15;16.77;;;2.30;;
21128;SDS011;10722;51.910;8.352;2022-12-29T16:29:04;13.07;;;2.30;;
21128;SDS011;10722;51.910;8.352;2022-12-29T16:37:28;12.60;;;1.80;;
21128;SDS011;10722;51.910;8.352;2022-12-29T16:43:20;13.37;;;2.13;;
21128;SDS011;10722;51.910;8.352;2022-12-29T16:49:06;10.20;;;1.90;;
21128;SDS011;10722;51.910;8.352;2022-12-29T16:52:16;14.80;;;1.90;;
21128;SDS011;10722;51.910;8.352;2022-12-29T16:55:03;9.20;;;1.60;;
21128;SDS011;10722;51.910;8.352;2022-12-29T16:57:50;10.87;;;1.80;;
21128;SDS011;10722;51.910;8.352;2022-12-29T17:00:38;13.93;;;2.83;;
21128;SDS011;10722;51.910;8.352;2022-12-29T17:03:24;12.40;;;1.93;;
21128;SDS011;10722;51.910;8.352;2022-12-29T17:06:16;12.47;;;1.53;;
21128;SDS011;10722;51.910;8.352;2022-12-29T17:09:13;10.77;;;2.03;;
21128;SDS011;10722;51.910;8.352;2022-12-29T17:12:02;10.30;;;2.10;;
21128;SDS011;10722;51.910;8.352;2022-12-29T17:17:45;13.93;;;2.33;;
21128;SDS011;10722;51.910;8.352;2022-12-29T17:20:32;9.83;;;2.20;;
21128;SDS011;10722;51.910;8.352;2022-12-29T17:23:18;9.50;;;1.80;;
21128;SDS011;10722;51.910;8.352;2022-12-29T17:26:10;12.03;;;1.90;;
21128;SDS011;10722;51.910;8.352;2022-12-29T17:28:57;15.20;;;2.13;;
21128;SDS011;10722;51.910;8.352;2022-12-29T17:31:43;11.50;;;2.13;;
21128;SDS011;10722;51.910;8.352;2022-12-29T17:34:28;14.93;;;2.50;;
21128;SDS011;10722;51.910;8.352;2022-12-29T17:40:09;15.53;;;2.37;;
21128;SDS011;10722;51.910;8.352;2022-12-29T17:42:58;15.20;;;2.43;;
21128;SDS011;10722;51.910;8.352;2022-12-29T17:45:44;9.40;;;1.70;;
21128;SDS011;10722;51.910;8.352;2022-12-29T17:48:36;11.47;;;2.10;;
21128;SDS011;10722;51.910;8.352;2022-12-29T17:51:22;12.63;;;2.23;;
21128;SDS011;10722;51.910;8.352;2022-12-29T17:54:15;8.87;;;1.50;;
21128;SDS011;10722;51.910;8.352;2022-12-29T17:57:04;23.93;;;2.07;;
21128;SDS011;10722;51.910;8.352;2022-12-29T17:59:49;13.07;;;2.50;;
21128;SDS011;10722;51.910;8.352;2022-12-29T18:02:34;12.23;;;2.07;;
21128;SDS011;10722;51.910;8.352;2022-12-29T18:05:24;13.77;;;2.53;;
21128;SDS011;10722;51.910;8.352;2022-12-29T18:08:11;13.27;;;2.30;;
21128;SDS011;10722;51.910;8.352;2022-12-29T18:10:57;15.50;;;2.57;;
21128;SDS011;10722;51.910;8.352;2022-12-29T18:13:42;14.23;;;2.20;;
21128;SDS011;10722;51.910;8.352;2022-12-29T18:16:31;15.73;;;2.40;;
21128;SDS011;10722;51.910;8.352;2022-12-29T18:19:16;14.73;;;2.77;;
21128;SDS011;10722;51.910;8.352;2022-12-29T18:22:02;14.63;;;2.60;;
21128;SDS011;10722;51.910;8.352;2022-12-29T18:24:47;13.50;;;2.70;;
21128;SDS011;10722;51.910;8.352;2022-12-29T18:27:32;13.87;;;2.30;;
21128;SDS011;10722;51.910;8.352;2022-12-29T18:30:17;15.63;;;3.10;;
21128;SDS011;10722;51.910;8.352;2022-12-29T18:33:03;17.90;;;3.00;;
21128;SDS011;10722;51.910;8.352;2022-12-29T18:35:50;14.37;;;2.40;;
21128;SDS011;10722;51.910;8.352;2022-12-29T18:38:40;14.90;;;2.50;;
21128;SDS011;10722;51.910;8.352;2022-12-29T18:41:26;11.13;;;2.20;;
21128;SDS011;10722;51.910;8.352;2022-12-29T18:44:12;12.60;;;2.30;;
21128;SDS011;10722;51.910;8.352;2022-12-29T18:46:58;10.40;;;1.77;;
21128;SDS011;10722;51.910;8.352;2022-12-29T18:49:43;6.90;;;1.40;;
21128;SDS011;10722;51.910;8.352;2022-12-29T18:52:29;10.23;;;1.70;;
21128;SDS011;10722;51.910;8.352;2022-12-29T18:55:15;10.00;;;2.00;;
21128;SDS011;10722;51.910;8.352;2022-12-29T18:58:02;3.30;;;1.20;;
21128;SDS011;10722;51.910;8.352;2022-12-29T19:00:47;7.40;;;1.80;;
21128;SDS011;10722;51.910;8.352;2022-12-29T19:03:35;9.10;;;1.67;;
21128;SDS011;10722;51.910;8.352;2022-12-29T19:06:21;6.70;;;1.80;;
21128;SDS011;10722;51.910;8.352;2022-12-29T19:09:07;8.43;;;1.67;;
21128;SDS011;10722;51.910;8.352;2022-12-29T19:11:52;10.93;;;1.90;;
21128;SDS011;10722;51.910;8.352;2022-12-29T19:14:38;5.67;;;1.60;;
21128;SDS011;10722;51.910;8.352;2022-12-29T19:17:23;8.57;;;1.87;;
21128;SDS011;10722;51.910;8.352;2022-12-29T19:20:10;9.50;;;1.87;;